Flight Track Log - Related Links

Times and Time Zones

All times are in EDT time to prevent confusion due to time zone crossing. See the UPS213 flight status page for this flight to view local times or setup timezone preferences in your user account.

Time Position Orientation Groundspeed Altitude Reporting Facility
EDT Latitude Longitude Course Direction KTS MPH feet Rate Location/Type
Fri 05:05:53 AM 38.0856 -85.7052 157° South 264 304 3,000  Level FlightAware ADS-B
Fri 05:06:52 AM 38.0500 -85.6227 76° East 311 358 5,500 2,650 Climbing FlightAware ADS-B
Fri 05:07:53 AM 38.1104 -85.5474 36° Northeast 309 356 8,300 2,430 Climbing FlightAware ADS-B
Fri 05:08:53 AM 38.1790 -85.4816 37° Northeast 341 392 10,400 1,750 Climbing FlightAware ADS-B
Fri 05:09:53 AM 38.2646 -85.4039 35° Northeast 389 448 11,800 2,129 Climbing FlightAware ADS-B
Fri 05:10:57 AM 38.3575 -85.3188 35° Northeast 392 451 14,800 2,274 Climbing FlightAware ADS-B
Fri 05:11:57 AM 38.4477 -85.2322 38° Northeast 421 484 16,500 1,800 Climbing FlightAware ADS-B
Fri 05:12:57 AM 38.5165 -85.1043 64° Northeast 462 532 18,400 1,488 Climbing FlightAware ADS-B
Fri 05:13:58 AM 38.5710 -84.9466 68° East 497 572 19,500 1,253 Climbing FlightAware ADS-B
Fri 05:14:28 AM 38.5973 -84.8651 68° East 506 582 20,300 1,600 Climbing FlightAware ADS-B (KCVG)
Fri 05:14:58 AM 38.6243 -84.7816 67° East 511 588 21,100 1,391 Climbing FlightAware ADS-B
Fri 05:15:37 AM 38.6579 -84.6790 68° East 525 604 21,900 1,286 Climbing FlightAware ADS-B (KCVG)
Fri 05:16:08 AM 38.6895 -84.5818 67° East 533 613 22,600 1,355 Climbing FlightAware ADS-B (KCVG)
Fri 05:16:39 AM 38.7191 -84.4907 68° East 539 620 23,300 1,333 Climbing FlightAware ADS-B
Fri 05:17:11 AM 38.7495 -84.3969 68° East 544 626 24,000 1,333 Climbing FlightAware ADS-B
Fri 05:17:42 AM 38.7799 -84.3029 68° East 549 632 24,700 1,371 Climbing FlightAware ADS-B
Fri 05:18:21 AM 38.7919 -84.2654 68° East 553 636 25,600 1,500 Climbing FlightAware ADS-B (KCVG)
Fri 05:19:02 AM 38.8570 -84.0625 68° East 554 638 26,700 1,875 Climbing FlightAware ADS-B
Fri 05:19:41 AM 38.8952 -83.9429 68° East 546 628 28,100 1,886 Climbing FlightAware ADS-B
Fri 05:20:12 AM 38.9207 -83.8624 68° East 545 627 28,900 1,377 Climbing FlightAware ADS-B
Fri 05:20:42 AM 38.9524 -83.7625 68° East 546 628 29,500 1,391 Climbing FlightAware ADS-B
Fri 05:21:21 AM 38.9894 -83.6450 68° East 540 621 30,500 1,521 Climbing FlightAware ADS-B
Fri 05:21:53 AM 39.0193 -83.5501 68° East 538 619 31,300 1,099 Climbing FlightAware ADS-B
Fri 05:22:32 AM 39.0560 -83.4333 68° East 543 625 31,800 771 Climbing FlightAware ADS-B
Fri 05:23:03 AM 39.0851 -83.3399 68° East 545 627 32,200 1,180 Climbing FlightAware ADS-B
Fri 05:23:33 AM 39.1086 -83.2642 68° East 539 620 33,000 686 Climbing FlightAware ADS-B
Fri 05:24:13 AM 39.1494 -83.1329 68° East 539 620 33,000  Level FlightAware ADS-B
Fri 05:24:43 AM 39.1770 -83.0438 68° East 541 623 33,000  Level FlightAware ADS-B
Fri 05:25:13 AM 39.2022 -82.9622 68° East 541 623 33,000  Level FlightAware ADS-B
Fri 05:25:52 AM 39.2388 -82.8423 69° East 537 618 33,000  Level FlightAware ADS-B
Fri 05:26:23 AM 39.2685 -82.7454 68° East 536 617 33,000  Level FlightAware ADS-B
Fri 05:26:53 AM 39.2942 -82.6613 69° East 538 619 33,000  Level FlightAware ADS-B
Fri 05:27:24 AM 39.3233 -82.5649 69° East 539 620 33,000  Level FlightAware ADS-B
Fri 05:27:54 AM 39.3511 -82.4736 69° East 537 618 33,000  Level FlightAware ADS-B
Fri 05:28:33 AM 39.3847 -82.3625 69° East 538 619 33,000  Level FlightAware ADS-B
Fri 05:29:03 AM 39.4114 -82.2729 69° East 538 619 33,000  Level FlightAware ADS-B
Fri 05:29:33 AM 39.4391 -82.1798 69° East 538 619 33,000  Level FlightAware ADS-B
Fri 05:30:04 AM 39.4669 -82.0863 69° East 540 621 33,000  Level FlightAware ADS-B
Fri 05:30:37 AM 39.4972 -81.9847 69° East 542 624 33,000  Level FlightAware ADS-B
Fri 05:31:26 AM 39.5411 -81.8359 69° East 543 625 33,000 69 Level FlightAware ADS-B
Fri 05:32:04 AM 39.5743 -81.7231 69° East 543 625 33,100  Climbing FlightAware ADS-B
Fri 05:33:04 AM 39.6217 -81.5622 69° East 541 623 33,000 -50 Descending Cleveland Center
Fri 05:34:04 AM 39.6744 -81.3803 69° East 541 623 33,000  Level Cleveland Center
Fri 05:35:05 AM 39.7272 -81.1981 69° East 540 621 33,000  Level Cleveland Center
Fri 05:36:09 AM 39.7814 -81.0069 70° East 539 620 33,000  Level Indianapolis Center
Fri 05:41:03 AM 40.0643 -79.9990 70° East 549 632 33,000  Level FlightAware ADS-B
Fri 05:41:42 AM 40.0751 -79.9591 70° East 550 633 33,000  Level FlightAware ADS-B
Fri 05:42:22 AM 40.0809 -79.9382 71° East 549 632 33,000  Level FlightAware ADS-B
Fri 05:43:11 AM 40.1507 -79.6811 70° East 549 632 33,000  Level FlightAware ADS-B
Fri 05:43:44 AM 40.1599 -79.6471 71° East 546 628 33,000  Level FlightAware ADS-B
Fri 05:44:19 AM 40.2036 -79.4858 71° East 545 627 33,000  Level FlightAware ADS-B
Fri 05:45:00 AM 40.2402 -79.3492 71° East 544 626 33,000  Level FlightAware ADS-B
Fri 05:45:30 AM 40.2586 -79.2809 71° East 541 623 33,000  Level FlightAware ADS-B
Fri 05:46:40 AM 40.3155 -79.0659 71° East 539 620 33,000  Level FlightAware ADS-B
Fri 05:47:12 AM 40.3425 -78.9642 71° East 541 623 33,000  Level Cleveland Center
Fri 05:48:13 AM 40.3908 -78.7814 71° East 539 620 33,000  Level Cleveland Center
Fri 05:49:13 AM 40.4381 -78.5989 71° East 537 618 33,000  Level Cleveland Center
Fri 05:50:14 AM 40.4953 -78.3789 71° East 537 618 33,000 15 Level Cleveland Center
Fri 05:56:02 AM 40.7693 -77.2924 68° East 532 612 33,100  Climbing FlightAware ADS-B (KPHL)
Fri 05:57:04 AM 40.8455 -77.1202 59° Northeast 520 598 33,000 -39 Descending FlightAware ADS-B (KPHL)
Fri 05:58:35 AM 40.9561 -76.8808 59° Northeast 520 598 33,000  Level FlightAware ADS-B (KPHL)
Fri 05:59:04 AM 40.9950 -76.7970 58° Northeast 522 601 33,000  Level FlightAware ADS-B
Fri 05:59:20 AM 41.0155 -76.7514 59° Northeast 522 601 33,000  Level FlightAware ADS-B (KPHL)
Fri 05:59:33 AM 41.0320 -76.7160 59° Northeast 523 602 33,000 200 Level FlightAware ADS-B
Fri 05:59:50 AM 41.0479 -76.6801 59° Northeast 522 601 33,100 194 Climbing FlightAware ADS-B (KPHL)
Fri 06:00:04 AM 41.0690 -76.6330 58° Northeast 524 603 33,100  Level FlightAware ADS-B
Fri 06:00:20 AM 41.0870 -76.5942 59° Northeast 523 602 33,100  Level FlightAware ADS-B (KPHL)
Fri 06:00:33 AM 41.1060 -76.5530 58° Northeast 523 602 33,100  Level FlightAware ADS-B
Fri 06:01:09 AM 41.1520 -76.4530 59° Northeast 523 602 33,100 -128 Level FlightAware ADS-B
Fri 06:01:20 AM 41.1633 -76.4269 59° Northeast 522 601 33,000 -194 Descending FlightAware ADS-B (KPHL)
Fri 06:01:40 AM 41.1890 -76.3710 59° Northeast 521 600 33,000  Level FlightAware ADS-B
Fri 06:02:03 AM 41.2155 -76.3113 59° Northeast 518 596 33,000  Level FlightAware ADS-B (KPHL)
Fri 06:02:16 AM 41.2330 -76.2730 59° Northeast 519 597 33,000  Level FlightAware ADS-B
Fri 06:02:45 AM 41.2700 -76.1910 58° Northeast 520 598 33,000  Level FlightAware ADS-B
Fri 06:03:22 AM 41.3150 -76.0910 58° Northeast 522 601 33,000  Level FlightAware ADS-B
Fri 06:03:57 AM 41.3590 -75.9950 59° Northeast 525 604 33,000 85 Level FlightAware ADS-B
Fri 06:04:33 AM 41.4030 -75.8950 59° Northeast 525 604 33,100  Climbing FlightAware ADS-B
Fri 06:05:13 AM 41.4480 -75.7930 59° Northeast 521 600 33,000 -71 Descending FlightAware ADS-B
Fri 06:05:58 AM 41.5060 -75.6610 59° Northeast 519 597 33,000 20 Level FlightAware ADS-B
Fri 06:10:19 AM 41.8220 -74.9380 59° Northeast 525 604 33,100  Climbing FlightAware ADS-B
Fri 06:10:49 AM 41.8590 -74.8540 59° Northeast 529 609 33,000 -42 Descending FlightAware ADS-B
Fri 06:12:41 AM 41.9917 -74.5439 60° Northeast 525 604 33,000 35 Level Boston Center
Fri 06:13:42 AM 42.0603 -74.3856 60° Northeast 533 613 33,100  Climbing Boston Center
Fri 06:14:43 AM 42.1328 -74.2128 60° Northeast 533 613 33,000 -50 Descending Boston Center
Fri 06:15:43 AM 42.2053 -74.0411 60° Northeast 530 610 33,000  Level Boston Center
Fri 06:16:44 AM 42.2753 -73.8725 61° Northeast 521 600 33,000  Level Boston Center
Fri 06:17:45 AM 42.3456 -73.7031 61° Northeast 517 595 33,000  Level Boston Center
Fri 06:18:46 AM 42.4156 -73.5331 61° Northeast 517 595 33,000 50 Level Boston Center
Fri 06:19:46 AM 42.4864 -73.3589 61° Northeast 520 598 33,100  Climbing Boston Center
Fri 06:20:47 AM 42.5572 -73.1828 61° Northeast 525 604 33,000 -49 Descending Boston Center
Fri 06:21:48 AM 42.6350 -72.9878 61° Northeast 525 604 33,000  Level Boston Center
Fri 06:22:49 AM 42.7056 -72.8178 60° Northeast 518 596 33,000  Level Boston Center
Fri 06:23:49 AM 42.7750 -72.6444 61° Northeast 521 600 33,000  Level Boston Center
Fri 06:24:50 AM 42.8453 -72.4675 62° Northeast 529 609 33,000  Level Boston Center
Fri 06:25:51 AM 42.9144 -72.2939 61° Northeast 528 608 33,000  Level Boston Center
Fri 06:26:52 AM 42.9792 -72.1297 62° Northeast 528 608 33,000  Level Boston Center
Fri 06:27:53 AM 43.0619 -71.9169 62° Northeast 528 608 33,000  Level Boston Center
Fri 06:28:54 AM 43.1303 -71.7378 62° Northeast 528 608 33,000  Level Boston Center
Fri 06:29:55 AM 43.2000 -71.5606 62° Northeast 529 609 33,000  Level Boston Center
Fri 06:30:56 AM 43.2664 -71.3844 63° Northeast 526 605 33,000  Level Boston Center
Fri 06:31:57 AM 43.3350 -71.2072 62° Northeast 526 605 33,000  Level Boston Center
Fri 06:37:36 AM 43.7196 -70.1731 63° Northeast 524 603 33,000  Level FlightAware ADS-B
Fri 06:39:40 AM 43.8535 -69.8046 63° Northeast 523 602 33,000 33 Level FlightAware ADS-B
Fri 06:40:39 AM 43.9169 -69.6283 64° Northeast 525 604 33,100 63 Climbing FlightAware ADS-B
Fri 06:41:15 AM 43.9553 -69.5208 64° Northeast 525 604 33,100 -79 Level FlightAware ADS-B
Fri 06:41:55 AM 43.9941 -69.4124 64° Northeast 528 608 33,000 -82 Descending FlightAware ADS-B
Fri 06:42:28 AM 44.0347 -69.2980 64° Northeast 528 608 33,000  Level FlightAware ADS-B
Fri 06:43:04 AM 44.0671 -69.2067 64° Northeast 529 609 33,000  Level FlightAware ADS-B
Fri 06:43:35 AM 44.1061 -69.0956 64° Northeast 529 609 33,000  Level FlightAware ADS-B
Fri 06:44:05 AM 44.1330 -69.0184 64° Northeast 531 611 33,000  Level FlightAware ADS-B
Fri 06:44:50 AM 44.1859 -68.8675 64° Northeast 531 611 33,000 79 Level FlightAware ADS-B
Fri 06:45:21 AM 44.2191 -68.7721 64° Northeast 530 610 33,100 98 Climbing FlightAware ADS-B
Fri 06:45:51 AM 44.2506 -68.6819 64° Northeast 531 611 33,100 -91 Level FlightAware ADS-B
Fri 06:46:27 AM 44.2907 -68.5655 64° Northeast 531 611 33,000 -86 Descending FlightAware ADS-B
Fri 06:47:01 AM 44.3232 -68.4714 64° Northeast 530 610 33,000  Level FlightAware ADS-B (EHTW / ENS)
Fri 06:47:39 AM 44.3660 -68.3459 64° Northeast 531 611 33,000  Level FlightAware ADS-B (EHTW / ENS)
Fri 06:48:09 AM 44.3944 -68.2626 65° Northeast 531 611 33,000  Level FlightAware ADS-B
Fri 06:48:45 AM 44.4349 -68.1434 64° Northeast 531 611 33,000  Level FlightAware ADS-B
Fri 06:49:28 AM 44.4806 -68.0094 65° Northeast 531 611 33,000  Level FlightAware ADS-B
Fri 06:50:04 AM 44.5181 -67.8977 65° Northeast 530 610 33,000  Level FlightAware ADS-B
Fri 06:50:35 AM 44.5506 -67.8013 65° Northeast 531 611 33,000  Level FlightAware ADS-B
Fri 06:51:11 AM 44.5866 -67.6944 65° Northeast 532 612 33,000  Level FlightAware ADS-B
Fri 06:51:46 AM 44.6179 -67.6000 65° Northeast 532 612 33,000  Level FlightAware ADS-B
Fri 06:52:25 AM 44.6625 -67.4645 66° East 535 616 33,000  Level FlightAware ADS-B
Fri 06:53:03 AM 44.6999 -67.3508 65° Northeast 536 617 33,000  Level FlightAware ADS-B
Fri 06:53:43 AM 44.7441 -67.2162 65° Northeast 538 619 33,000  Level FlightAware ADS-B
Fri 06:54:18 AM 44.7775 -67.1144 65° Northeast 541 623 33,000 37 Level FlightAware ADS-B
Fri 06:56:25 AM 44.8065 -67.0261 66° East 543 625 33,100  Climbing FlightAware ADS-B
Fri 06:58:32 AM 45.0412 -66.2934 66° East 530 610 33,000 -38 Descending FlightAware ADS-B
Fri 06:59:03 AM 45.0734 -66.1922 66° East 530 610 33,000  Level FlightAware ADS-B
Fri 06:59:43 AM 45.1132 -66.0661 66° East 529 609 33,000  Level FlightAware ADS-B
Fri 07:00:13 AM 45.1425 -65.9714 66° East 532 612 33,000  Level FlightAware ADS-B
Fri 07:00:54 AM 45.1847 -65.8365 66° East 538 619 33,000  Level FlightAware ADS-B
Fri 07:01:25 AM 45.2157 -65.7373 66° East 541 623 33,000 98 Level FlightAware ADS-B
Fri 07:01:55 AM 45.2451 -65.6412 67° East 543 625 33,100  Climbing FlightAware ADS-B
Fri 07:02:38 AM 45.2887 -65.4990 66° East 545 627 33,000  Descending FlightAware ADS-B
Fri 07:03:08 AM 45.3192 -65.3999 67° East 544 626 33,100  Climbing FlightAware ADS-B
Fri 07:03:52 AM 45.3628 -65.2566 67° East 542 624 33,000 -72 Descending FlightAware ADS-B
Fri 07:04:31 AM 45.4004 -65.1328 67° East 542 624 33,000  Level FlightAware ADS-B
Fri 07:05:02 AM 45.4322 -65.0275 67° East 542 624 33,000  Level FlightAware ADS-B
Fri 07:05:40 AM 45.4697 -64.9026 67° East 543 625 33,000  Level FlightAware ADS-B
Fri 07:06:53 AM 45.5411 -64.6626 67° East 543 625 33,000  Level FlightAware ADS-B
Fri 07:07:30 AM 45.5667 -64.5500 67° East 550 633 33,000  Level Gander Center
Fri 07:08:30 AM 45.6167 -64.3333 72° East 550 633 33,000  Level Gander Center
Fri 07:09:30 AM 45.6667 -64.1500 69° East 550 633 33,000  Level Gander Center
Fri 07:10:30 AM 45.7500 -63.9333 61° Northeast 550 633 33,000  Level Gander Center
Fri 07:11:30 AM 45.8000 -63.7167 72° East 550 633 33,000  Level Gander Center
Fri 07:12:30 AM 45.8500 -63.5167 70° East 550 633 33,000  Level Gander Center
Fri 07:13:30 AM 45.9000 -63.3167 70° East 550 633 33,000  Level Gander Center
Fri 07:14:30 AM 45.9667 -63.1333 62° Northeast 550 633 33,000  Level Gander Center
Fri 07:15:30 AM 46.0333 -62.9167 66° East 550 633 33,000  Level Gander Center
Fri 07:16:30 AM 46.0833 -62.7333 68° East 550 633 33,000  Level Gander Center
Fri 07:17:30 AM 46.1333 -62.5167 72° East 550 633 33,000  Level Gander Center
Fri 07:18:30 AM 46.1833 -62.3000 71° East 550 633 33,000  Level Gander Center
Fri 07:19:30 AM 46.2333 -62.0833 71° East 550 633 33,000  Level Gander Center
Fri 07:20:30 AM 46.3000 -61.8833 64° Northeast 550 633 33,000  Level Gander Center
Fri 07:21:30 AM 46.3667 -61.7000 62° Northeast 550 633 33,000  Level Gander Center
Fri 07:22:30 AM 46.4167 -61.4833 71° East 550 633 33,000  Level Gander Center
Fri 07:23:30 AM 46.4667 -61.2833 70° East 540 621 33,000  Level Gander Center
Fri 07:24:30 AM 46.5167 -61.0667 71° East 540 621 33,000  Level Gander Center
Fri 07:25:30 AM 46.5667 -60.8667 70° East 530 610 33,000  Level Gander Center
Fri 07:26:37 AM 46.6167 -60.6500 71° East 540 621 33,000  Level Moncton Center
Fri 07:27:30 AM 46.6667 -60.4500 70° East 550 633 33,000  Level Gander Center
Fri 07:28:30 AM 46.7333 -60.2667 62° Northeast 560 644 33,000  Level Gander Center
Fri 07:29:30 AM 46.8167 -60.0333 62° Northeast 560 644 33,000  Level Gander Center
Fri 07:30:30 AM 46.8833 -59.8667 60° Northeast 550 633 33,000  Level Gander Center
Fri 07:31:30 AM 46.9667 -59.6500 61° Northeast 550 633 33,000  Level Gander Center
Fri 07:32:30 AM 47.0500 -59.4667 56° Northeast 560 644 33,000  Level Gander Center
Fri 07:33:30 AM 47.1167 -59.2500 66° East 550 633 33,000  Level Gander Center
Fri 07:34:30 AM 47.1833 -59.0500 64° Northeast 550 633 33,000  Level Gander Center
Fri 07:35:30 AM 47.2667 -58.8667 56° Northeast 550 633 33,000  Level Gander Center
Fri 07:36:30 AM 47.3333 -58.6667 64° Northeast 560 644 33,000  Level Gander Center
Fri 07:37:30 AM 47.4167 -58.4667 58° Northeast 550 633 33,000  Level Gander Center
Fri 07:38:30 AM 47.4667 -58.2667 70° East 560 644 33,000  Level Gander Center
Fri 07:39:30 AM 47.5500 -58.0667 58° Northeast 550 633 33,000  Level Gander Center
Fri 07:40:30 AM 47.6333 -57.8667 58° Northeast 550 633 33,000  Level Gander Center
Fri 07:41:30 AM 47.7000 -57.6500 65° Northeast 550 633 33,000 50 Level Gander Center
Fri 07:42:30 AM 47.7667 -57.4500 64° Northeast 550 633 33,100  Climbing Gander Center
Fri 07:43:30 AM 47.8333 -57.2500 64° Northeast 560 644 33,000 -50 Descending Gander Center
Fri 07:44:30 AM 47.9167 -57.0500 58° Northeast 560 644 33,000 50 Level Gander Center
Fri 07:45:30 AM 47.9833 -56.8333 65° Northeast 560 644 33,100  Climbing Gander Center
Fri 07:46:30 AM 48.0500 -56.6333 63° Northeast 560 644 33,000 450 Descending Gander Center
Fri 07:47:30 AM 48.1333 -56.4167 60° Northeast 560 644 34,000 1,000 Climbing Gander Center
Fri 07:48:30 AM 48.1833 -56.2167 69° East 560 644 35,000 500 Climbing Gander Center
Fri 07:49:30 AM 48.2500 -56.0167 63° Northeast 560 644 35,000  Level Gander Center
Fri 07:50:30 AM 48.3167 -55.8000 65° Northeast 560 644 35,000  Level Gander Center
Fri 07:51:30 AM 48.3833 -55.5667 67° East 560 644 35,000  Level Gander Center
Fri 07:52:30 AM 48.4667 -55.3833 56° Northeast 560 644 35,000  Level Gander Center
Fri 07:53:30 AM 48.5167 -55.1667 71° East 560 644 35,000  Level Gander Center
Fri 07:54:30 AM 48.5833 -54.9333 67° East 560 644 35,000  Level Gander Center
Fri 07:55:30 AM 48.6500 -54.7500 61° Northeast 560 644 35,000  Level Gander Center
Fri 07:56:30 AM 48.7167 -54.5167 67° East 560 644 35,000  Level Gander Center
Fri 07:57:30 AM 48.7833 -54.3333 61° Northeast 560 644 35,000  Level Gander Center
Fri 07:58:30 AM 48.8500 -54.0833 68° East 560 644 35,000 50 Level Gander Center
Fri 07:59:30 AM 48.9000 -53.8667 71° East 560 644 35,100  Climbing Gander Center
Fri 08:00:30 AM 48.9833 -53.6667 58° Northeast 560 644 35,000 -50 Descending Gander Center
Fri 08:01:30 AM 49.0333 -53.4500 71° East 560 644 35,000  Level Gander Center
Fri 08:02:30 AM 49.1000 -53.2333 65° Northeast 560 644 35,000  Level Gander Center
Fri 08:03:30 AM 49.1667 -53.0167 65° Northeast 560 644 35,000  Level Gander Center
Fri 08:04:30 AM 49.2333 -52.7667 68° East 560 644 35,000  Level Gander Center
Fri 08:05:30 AM 49.2833 -52.5500 70° East 560 644 35,000  Level Gander Center
Fri 08:06:30 AM 49.3500 -52.3667 61° Northeast 560 644 35,000  Level Gander Center
Fri 08:07:30 AM 49.4167 -52.1167 68° East 560 644 35,000  Level Gander Center
Fri 08:08:30 AM 49.4667 -51.9000 70° East 570 656 35,000  Level Gander Center
Fri 08:09:30 AM 49.5333 -51.6500 68° East 570 656 35,000 50 Level Gander Center
Fri 08:10:30 AM 49.6000 -51.4333 65° Northeast 580 667 35,100 50 Climbing Gander Center
Fri 08:11:30 AM 49.6667 -51.2167 65° Northeast 580 667 35,100  Level Gander Center
Fri 08:12:30 AM 49.7167 -50.9667 73° East 580 667 35,100 -50 Level Gander Center
Fri 08:13:30 AM 49.7667 -50.7500 70° East 580 667 35,000 -50 Descending Gander Center
Fri 08:14:30 AM 49.8333 -50.5000 67° East 580 667 35,000  Level Gander Center
Fri 08:15:30 AM 49.9000 -50.2833 64° Northeast 580 667 35,000  Level Gander Center
Fri 08:16:30 AM 49.9500 -50.0500 72° East 570 656 35,000  Level Gander Center
Fri 08:17:30 AM 50.0000 -49.8333 70° East 570 656 35,000  Level Gander Center
Fri 08:18:30 AM 50.0333 -49.5833 78° East 570 656 35,000  Level Gander Center
Fri 08:20:10 AM 50.0833 -49.1833 79° East 570 656 35,000  Level Gander Center
Fri 08:21:10 AM 50.1333 -48.9333 73° East 570 656 35,000  Level Gander Center
Fri 08:22:10 AM 50.1667 -48.7167 76° East 570 656 35,000  Level Gander Center
Fri 08:23:10 AM 50.2000 -48.4667 78° East 570 656 35,000  Level Gander Center
Fri 08:24:10 AM 50.2167 -48.2167 84° East 560 644 35,000  Level Gander Center
Fri 08:25:30 AM 50.2667 -47.9167 75° East 550 633 35,000  Level Gander Center
Fri 08:26:30 AM 50.2833 -47.6833 84° East 570 656 35,000  Level Gander Center
Fri 08:28:00 AM 50.3419 -47.3567 74° East  Level FlightAware Approximate
Fri 08:35:00 AM 50.5283 -45.7968 79° East  Level FlightAware Approximate
Fri 08:36:00 AM 50.5521 -45.5727 80° East  Level FlightAware Approximate
Fri 08:37:00 AM 50.5752 -45.3482 81° East  Level FlightAware Approximate
Fri 08:38:00 AM 50.5974 -45.1235 81° East  Level FlightAware Approximate
Fri 08:39:00 AM 50.6192 -44.8985 81° East  Level FlightAware Approximate
Fri 08:40:00 AM 50.6406 -44.6733 81° East  Level FlightAware Approximate
Fri 08:41:00 AM 50.6615 -44.4480 82° East  Level FlightAware Approximate
Fri 08:42:00 AM 50.6820 -44.2224 82° East  Level FlightAware Approximate
Fri 08:43:00 AM 50.7020 -43.9966 82° East  Level FlightAware Approximate
Fri 08:44:00 AM 50.7216 -43.7707 82° East  Level FlightAware Approximate
Fri 08:45:00 AM 50.7412 -43.5446 82° East  Level FlightAware Approximate
Fri 08:46:00 AM 50.7610 -43.3185 82° East  Level FlightAware Approximate
Fri 08:47:00 AM 50.7804 -43.0922 82° East  Level FlightAware Approximate
Fri 08:48:00 AM 50.7994 -42.8657 82° East  Level FlightAware Approximate
Fri 08:49:00 AM 50.8178 -42.6391 83° East  Level FlightAware Approximate
Fri 08:50:00 AM 50.8359 -42.4122 83° East  Level FlightAware Approximate
Fri 08:51:00 AM 50.8535 -42.1852 83° East  Level FlightAware Approximate
Fri 08:52:00 AM 50.8707 -41.9580 83° East  Level FlightAware Approximate
Fri 08:53:00 AM 50.8874 -41.7307 83° East  Level FlightAware Approximate
Fri 08:54:00 AM 50.9037 -41.5032 83° East  Level FlightAware Approximate
Fri 08:55:00 AM 50.9196 -41.2755 84° East  Level FlightAware Approximate
Fri 08:56:00 AM 50.9350 -41.0477 84° East  Level FlightAware Approximate
Fri 08:57:00 AM 50.9499 -40.8197 84° East  Level FlightAware Approximate
Fri 08:58:00 AM 50.9645 -40.5916 84° East  Level FlightAware Approximate
Fri 08:59:00 AM 50.9785 -40.3633 84° East  Level FlightAware Approximate
Fri 09:00:00 AM 50.9922 -40.1350 84° East  Level FlightAware Approximate
Fri 09:01:00 AM 51.0129 -39.9083 77° East  Level FlightAware Approximate
Fri 09:02:00 AM 51.0440 -39.6841 77° East  Level FlightAware Approximate
Fri 09:03:00 AM 51.0748 -39.4596 78° East  Level FlightAware Approximate
Fri 09:04:00 AM 51.1051 -39.2348 78° East  Level FlightAware Approximate
Fri 09:05:00 AM 51.1349 -39.0097 78° East  Level FlightAware Approximate
Fri 09:06:00 AM 51.1644 -38.7843 78° East  Level FlightAware Approximate
Fri 09:07:00 AM 51.1944 -38.5589 78° East  Level FlightAware Approximate
Fri 09:08:00 AM 51.2241 -38.3333 78° East  Level FlightAware Approximate
Fri 09:09:00 AM 51.2534 -38.1074 78° East  Level FlightAware Approximate
Fri 09:10:00 AM 51.2822 -37.8813 78° East  Level FlightAware Approximate
Fri 09:11:00 AM 51.3106 -37.6548 79° East  Level FlightAware Approximate
Fri 09:12:00 AM 51.3386 -37.4281 79° East  Level FlightAware Approximate
Fri 09:13:00 AM 51.3661 -37.2011 79° East  Level FlightAware Approximate
Fri 09:14:00 AM 51.3932 -36.9738 79° East  Level FlightAware Approximate
Fri 09:15:00 AM 51.4198 -36.7462 79° East  Level FlightAware Approximate
Fri 09:16:00 AM 51.4460 -36.5184 79° East  Level FlightAware Approximate
Fri 09:17:00 AM 51.4718 -36.2904 80° East  Level FlightAware Approximate
Fri 09:18:00 AM 51.4971 -36.0620 80° East  Level FlightAware Approximate
Fri 09:19:00 AM 51.5220 -35.8335 80° East  Level FlightAware Approximate
Fri 09:20:00 AM 51.5464 -35.6046 80° East  Level FlightAware Approximate
Fri 09:21:00 AM 51.5704 -35.3756 80° East  Level FlightAware Approximate
Fri 09:22:00 AM 51.5939 -35.1463 81° East  Level FlightAware Approximate
Fri 09:23:00 AM 51.6170 -34.9167 81° East  Level FlightAware Approximate
Fri 09:24:00 AM 51.6396 -34.6869 81° East  Level FlightAware Approximate
Fri 09:25:00 AM 51.6618 -34.4569 81° East  Level FlightAware Approximate
Fri 09:26:00 AM 51.6836 -34.2267 81° East  Level FlightAware Approximate
Fri 09:27:00 AM 51.7049 -33.9963 81° East  Level FlightAware Approximate
Fri 09:28:00 AM 51.7257 -33.7656 82° East  Level FlightAware Approximate
Fri 09:29:00 AM 51.7461 -33.5348 82° East  Level FlightAware Approximate
Fri 09:30:00 AM 51.7660 -33.3037 82° East  Level FlightAware Approximate
Fri 09:31:00 AM 51.7855 -33.0724 82° East  Level FlightAware Approximate
Fri 09:32:00 AM 51.8045 -32.8409 82° East  Level FlightAware Approximate
Fri 09:33:00 AM 51.8231 -32.6093 83° East  Level FlightAware Approximate
Fri 09:34:00 AM 51.8412 -32.3774 83° East  Level FlightAware Approximate
Fri 09:35:00 AM 51.8589 -32.1454 83° East  Level FlightAware Approximate
Fri 09:36:00 AM 51.8761 -31.9131 83° East  Level FlightAware Approximate
Fri 09:37:00 AM 51.8928 -31.6807 83° East  Level FlightAware Approximate
Fri 09:38:00 AM 51.9091 -31.4482 83° East  Level FlightAware Approximate
Fri 09:39:00 AM 51.9249 -31.2155 84° East  Level FlightAware Approximate
Fri 09:40:00 AM 51.9403 -30.9825 84° East  Level FlightAware Approximate
Fri 09:41:00 AM 51.9552 -30.7495 84° East  Level FlightAware Approximate
Fri 09:42:00 AM 51.9697 -30.5163 84° East  Level FlightAware Approximate
Fri 09:43:00 AM 51.9837 -30.2829 84° East  Level FlightAware Approximate
Fri 09:44:00 AM 51.9972 -30.0494 85° East  Level FlightAware Approximate
Fri 09:45:00 AM 52.0077 -29.8155 86° East  Level FlightAware Approximate
Fri 09:46:00 AM 52.0170 -29.5813 86° East  Level FlightAware Approximate
Fri 09:47:00 AM 52.0259 -29.3471 86° East  Level FlightAware Approximate
Fri 09:48:00 AM 52.0343 -29.1128 87° East  Level FlightAware Approximate
Fri 09:49:00 AM 52.0422 -28.8783 87° East  Level FlightAware Approximate
Fri 09:50:00 AM 52.0497 -28.6438 87° East  Level FlightAware Approximate
Fri 09:51:00 AM 52.0567 -28.4093 87° East  Level FlightAware Approximate
Fri 09:52:00 AM 52.0633 -28.1746 87° East  Level FlightAware Approximate
Fri 09:53:00 AM 52.0694 -27.9399 87° East  Level FlightAware Approximate
Fri 09:54:00 AM 52.0750 -27.7051 88° East  Level FlightAware Approximate
Fri 09:55:00 AM 52.0801 -27.4703 88° East  Level FlightAware Approximate
Fri 09:56:00 AM 52.0848 -27.2354 88° East  Level FlightAware Approximate
Fri 09:57:00 AM 52.0890 -27.0005 88° East  Level FlightAware Approximate
Fri 09:58:00 AM 52.0927 -26.7655 88° East  Level FlightAware Approximate
Fri 09:59:00 AM 52.0960 -26.5305 89° East  Level FlightAware Approximate
Fri 10:00:00 AM 52.0988 -26.2954 89° East  Level FlightAware Approximate
Fri 10:01:00 AM 52.1012 -26.0604 89° East  Level FlightAware Approximate
Fri 10:02:00 AM 52.1031 -25.8253 89° East  Level FlightAware Approximate
Fri 10:03:00 AM 52.1045 -25.5901 89° East  Level FlightAware Approximate
Fri 10:04:00 AM 52.1054 -25.3550 90° East  Level FlightAware Approximate
Fri 10:05:00 AM 52.1059 -25.1199 90° East  Level FlightAware Approximate
Fri 10:06:00 AM 52.1059 -24.8848 90° East  Level FlightAware Approximate
Fri 10:07:00 AM 52.1054 -24.6496 90° East  Level FlightAware Approximate
Fri 10:08:00 AM 52.1045 -24.4145 90° East  Level FlightAware Approximate
Fri 10:09:00 AM 52.1031 -24.1794 90° East  Level FlightAware Approximate
Fri 10:10:00 AM 52.1012 -23.9443 91° East  Level FlightAware Approximate
Fri 10:11:00 AM 52.0989 -23.7092 91° East  Level FlightAware Approximate
Fri 10:12:00 AM 52.0961 -23.4742 91° East  Level FlightAware Approximate
Fri 10:13:00 AM 52.0928 -23.2392 91° East  Level FlightAware Approximate
Fri 10:14:00 AM 52.0891 -23.0042 91° East  Level FlightAware Approximate
Fri 10:15:00 AM 52.0849 -22.7693 92° East  Level FlightAware Approximate
Fri 10:16:00 AM 52.0802 -22.5344 92° East  Level FlightAware Approximate
Fri 10:17:00 AM 52.0751 -22.2995 92° East  Level FlightAware Approximate
Fri 10:18:00 AM 52.0695 -22.0648 92° East  Level FlightAware Approximate
Fri 10:19:00 AM 52.0634 -21.8300 92° East  Level FlightAware Approximate
Fri 10:20:00 AM 52.0569 -21.5954 93° East  Level FlightAware Approximate
Fri 10:21:00 AM 52.0499 -21.3608 93° East  Level FlightAware Approximate
Fri 10:22:00 AM 52.0424 -21.1263 93° East  Level FlightAware Approximate
Fri 10:23:00 AM 52.0345 -20.8919 93° East  Level FlightAware Approximate
Fri 10:24:00 AM 52.0261 -20.6575 93° East  Level FlightAware Approximate
Fri 10:25:00 AM 52.0172 -20.4233 93° East  Level FlightAware Approximate
Fri 10:26:00 AM 52.0079 -20.1891 94° East  Level FlightAware Approximate
Fri 10:27:00 AM 52.0017 -19.9550 86° East  Level FlightAware Approximate
Fri 10:28:00 AM 52.0103 -19.7208 87° East  Level FlightAware Approximate
Fri 10:29:00 AM 52.0183 -19.4866 87° East  Level FlightAware Approximate
Fri 10:30:00 AM 52.0260 -19.2522 87° East  Level FlightAware Approximate
Fri 10:31:00 AM 52.0331 -19.0178 87° East  Level FlightAware Approximate
Fri 10:32:00 AM 52.0398 -18.7833 87° East  Level FlightAware Approximate
Fri 10:33:00 AM 52.0460 -18.5487 87° East  Level FlightAware Approximate
Fri 10:34:00 AM 52.0518 -18.3140 88° East  Level FlightAware Approximate
Fri 10:35:00 AM 52.0571 -18.0793 88° East  Level FlightAware Approximate
Fri 10:36:00 AM 52.0619 -17.8445 88° East  Level FlightAware Approximate
Fri 10:37:00 AM 52.0663 -17.6098 88° East  Level FlightAware Approximate
Fri 10:38:00 AM 52.0702 -17.3749 88° East  Level FlightAware Approximate
Fri 10:39:00 AM 52.0736 -17.1400 89° East  Level FlightAware Approximate
Fri 10:40:00 AM 52.0766 -16.9051 89° East  Level FlightAware Approximate
Fri 10:41:00 AM 52.0791 -16.6701 89° East  Level FlightAware Approximate
Fri 10:42:00 AM 52.0811 -16.4352 89° East  Level FlightAware Approximate
Fri 10:43:00 AM 52.0826 -16.2002 89° East  Level FlightAware Approximate
Fri 10:44:00 AM 52.0837 -15.9652 89° East  Level FlightAware Approximate
Fri 10:45:00 AM 52.0844 -15.7301 90° East  Level FlightAware Approximate
Fri 10:46:00 AM 52.0845 -15.4951 90° East  Level FlightAware Approximate
Fri 10:47:00 AM 52.0842 -15.2601 90° East  Level FlightAware Approximate
Fri 10:48:00 AM 52.0834 -15.0251 90° East  Level FlightAware Approximate
Fri 10:49:00 AM 52.0828 -14.7901 90° East  Level FlightAware Approximate
Fri 10:50:00 AM 52.0817 -14.5551 90° East  Level FlightAware Approximate
Fri 10:51:00 AM 52.0802 -14.3201 91° East  Level FlightAware Approximate
Fri 10:52:00 AM 52.0783 -14.0851 91° East  Level FlightAware Approximate
Fri 10:53:00 AM 52.0758 -13.8502 91° East  Level FlightAware Approximate
Fri 10:54:00 AM 52.0729 -13.6152 91° East  Level FlightAware Approximate
Fri 10:55:00 AM 52.0695 -13.3804 91° East  Level FlightAware Approximate
Fri 10:56:00 AM 52.0657 -13.1455 91° East  Level FlightAware Approximate
Fri 10:57:00 AM 52.0614 -12.9107 92° East  Level FlightAware Approximate
Fri 10:57:00 AM 51.9881 -11.7621 92° East 538 619 35,000  Level FlightAware ADS-B (KHQM)
Fri 10:58:11 AM 51.9776 -11.2466 92° East 545 627 35,000 55 Level FlightAware ADS-B (KHQM)
Fri 10:58:49 AM 51.9742 -11.0963 92° East 546 628 35,100 87 Climbing FlightAware ADS-B (KHQM)
Fri 10:59:20 AM 51.9711 -10.9625 92° East 548 631 35,100  Level FlightAware ADS-B (KHQM)
Fri 10:59:50 AM 51.9682 -10.8390 93° East 548 631 35,100  Level FlightAware ADS-B (KHQM)
Fri 11:00:30 AM 51.9645 -10.6974 92° East 545 627 35,100 -85 Level FlightAware ADS-B (KHQM)
Fri 11:01:01 AM 51.9605 -10.5513 93° East 544 626 35,000 -85 Descending FlightAware ADS-B (KHQM)
Fri 11:01:41 AM 51.9557 -10.3929 93° East 544 626 35,000  Level FlightAware ADS-B (KHQM)
Fri 11:02:11 AM 51.9525 -10.2701 93° East 544 626 35,000  Level FlightAware ADS-B (KHQM)
Fri 11:02:49 AM 51.9476 -10.1131 93° East 544 626 35,000  Level FlightAware ADS-B (KHQM)
Fri 11:03:21 AM 51.9435 -9.9848 93° East 543 625 35,000  Level FlightAware ADS-B (KHQM)
Fri 11:04:00 AM 51.9386 -9.8338 93° East 542 624 35,000  Level FlightAware ADS-B (KHQM)
Fri 11:04:31 AM 51.9340 -9.7017 93° East 541 623 35,000  Level FlightAware ADS-B (KHQM)
Fri 11:05:01 AM 51.9301 -9.5879 93° East 541 623 35,000  Level FlightAware ADS-B (KHQM)
Fri 11:05:41 AM 51.9242 -9.4222 94° East 541 623 35,000  Level FlightAware ADS-B (KHQM)
Fri 11:06:11 AM 51.9195 -9.3004 94° East 540 621 35,000  Level FlightAware ADS-B (KHQM)
Fri 11:06:41 AM 51.9146 -9.1826 94° East 540 621 35,000  Level FlightAware ADS-B (KHQM)
Fri 11:07:11 AM 51.9100 -9.0707 94° East 540 621 35,000  Level FlightAware ADS-B (KHQM)
Fri 11:07:58 AM 51.9010 -8.8643 94° East 540 621 35,000  Level FlightAware UK
Fri 11:08:21 AM 51.8976 -8.7775 94° East 539 620 35,000  Level FlightAware ADS-B (KHQM)
Fri 11:09:00 AM 51.8907 -8.6200 94° East 539 620 35,000 86 Level FlightAware ADS-B (KHQM)
Fri 11:09:31 AM 51.8856 -8.5000 94° East 537 618 35,100  Climbing FlightAware ADS-B (KHQM)
Fri 11:10:07 AM 51.8804 -8.3848 95° East 538 619 35,000 -91 Descending FlightAware ADS-B
Fri 11:10:37 AM 51.8733 -8.2350 94° East 538 619 35,000  Level FlightAware ADS-B
Fri 11:11:16 AM 51.8709 -8.1792 94° East 542 624 35,000 -73 Level FlightAware ADS-B
Fri 11:11:59 AM 51.8568 -7.9017 94° East 544 626 34,900  Descending FlightAware UK
Fri 11:12:17 AM 51.8597 -7.9481 95° East 547 629 35,000 100 Climbing FlightAware ADS-B
Fri 11:12:59 AM 51.8402 -7.6595 95° East 548 631 35,000  Level FlightAware UK
Fri 11:13:29 AM 51.8337 -7.5375 95° East 548 631 35,000 162 Level FlightAware UK
Fri 11:13:36 AM 51.8402 -7.5777 95° East 547 629 35,100 130 Climbing FlightAware ADS-B
Fri 11:14:15 AM 51.8287 -7.3704 95° East 541 623 35,100 -80 Level FlightAware ADS-B
Fri 11:14:51 AM 51.8209 -7.2262 95° East 534 615 35,000 -88 Descending FlightAware ADS-B
Fri 11:15:23 AM 51.8137 -7.0941 95° East 532 612 35,000  Level FlightAware ADS-B
Fri 11:16:01 AM 51.8042 -6.9289 95° East 533 613 35,000  Level FlightAware ADS-B
Fri 11:16:31 AM 51.7975 -6.8150 95° East 538 619 35,000  Level FlightAware ADS-B
Fri 11:17:01 AM 51.7934 -6.7020 92° East 544 626 35,000 98 Level FlightAware ADS-B
Fri 11:17:32 AM 51.7894 -6.5672 93° East 545 627 35,100  Climbing FlightAware ADS-B
Fri 11:18:15 AM 51.7830 -6.3889 94° East 544 626 35,000 -74 Descending FlightAware ADS-B
Fri 11:18:53 AM 51.7775 -6.2440 94° East 542 624 35,000  Level FlightAware ADS-B
Fri 11:19:32 AM 51.7720 -6.0942 93° East 543 625 35,000  Level FlightAware ADS-B
Fri 11:20:02 AM 51.7673 -5.9738 94° East 545 627 35,000  Level FlightAware ADS-B
Fri 11:20:33 AM 51.7614 -5.8329 94° East 547 629 35,000  Level FlightAware ADS-B
Fri 11:21:03 AM 51.7561 -5.7127 94° East 547 629 35,000 97 Level FlightAware ADS-B
Fri 11:21:35 AM 51.7507 -5.5845 94° East 548 631 35,100  Climbing FlightAware ADS-B (EGYM / MRH)
Fri 11:22:05 AM 51.7454 -5.4588 93° East 547 629 35,000  Descending FlightAware ADS-B (KSCH)
Fri 11:22:40 AM 51.7388 -5.3195 94° East 547 629 35,100 85 Climbing FlightAware ADS-B
Fri 11:23:16 AM 51.7319 -5.1708 94° East 543 625 35,100 -91 Level FlightAware ADS-B (LKVR)
Fri 11:23:46 AM 51.7261 -5.0541 94° East 541 623 35,000 -95 Descending FlightAware ADS-B (EGYM / MRH)
Fri 11:24:19 AM 51.7194 -4.9159 94° East 540 621 35,000  Level FlightAware ADS-B (LKVR)
Fri 11:24:52 AM 51.7134 -4.7913 95° East 541 623 35,000  Level FlightAware ADS-B (EGDX / DGX)
Fri 11:24:59 AM 51.7118 -4.7594 95° East 541 623 35,000  Level FlightAware ADS-B
Fri 11:25:05 AM 51.7106 -4.7364 95° East 541 623 35,000  Level FlightAware ADS-B (EGDX / DGX)
Fri 11:25:19 AM 51.7078 -4.6806 94° East 541 623 35,000  Level FlightAware ADS-B (EGHH / BOH)
Fri 11:25:44 AM 51.7027 -4.5834 95° East 544 626 35,000  Level FlightAware ADS-B (EGCW)
Fri 11:26:08 AM 51.6973 -4.4807 95° East 547 629 35,000  Level FlightAware ADS-B
Fri 11:26:21 AM 51.6945 -4.4265 95° East 548 631 35,000  Level FlightAware ADS-B (EGYM / MRH)
Fri 11:26:54 AM 51.6873 -4.2964 95° East 549 632 35,000 95 Level FlightAware ADS-B (EGCW)
Fri 11:27:24 AM 51.6807 -4.1778 95° East 549 632 35,100 100 Climbing FlightAware ADS-B (EGCW)
Fri 11:27:54 AM 51.6734 -4.0485 95° East 549 632 35,100  Level FlightAware ADS-B (EGYM / MRH)
Fri 11:28:24 AM 51.6693 -3.9769 95° East 549 632 35,100 -143 Level FlightAware ADS-B (EGCW)
Fri 11:28:36 AM 51.6661 -3.9230 95° East 549 632 35,000 -286 Descending FlightAware ADS-B
Fri 11:28:45 AM 51.6616 -3.8465 95° East 549 632 35,000  Level FlightAware ADS-B (EGHH / BOH)
Fri 11:29:02 AM 51.6574 -3.7777 95° East 549 632 35,000  Level FlightAware ADS-B (EGHH / BOH)
Fri 11:29:33 AM 51.6501 -3.6494 95° East 545 627 35,000  Level FlightAware ADS-B (EGCW)
Fri 11:29:42 AM 51.6480 -3.6128 95° East 544 626 35,000  Level FlightAware ADS-B (EGDX / DGX)
Fri 11:29:56 AM 51.6448 -3.5609 95° East 543 625 35,000  Level FlightAware ADS-B (EGHH / BOH)
Fri 11:30:23 AM 51.6375 -3.4476 95° East 542 624 35,000  Level FlightAware ADS-B (LKVR)
Fri 11:30:50 AM 51.6311 -3.3403 96° East 544 626 35,000  Level FlightAware ADS-B (EGHH / BOH)
Fri 11:31:13 AM 51.6255 -3.2491 95° East 542 624 35,000  Level FlightAware ADS-B
Fri 11:31:26 AM 51.6223 -3.1988 95° East 542 624 35,000  Level FlightAware ADS-B (EGHH / BOH)
Fri 11:31:41 AM 51.6183 -3.1384 96° East 542 624 35,000  Level FlightAware ADS-B
Fri 11:31:58 AM 51.6137 -3.0705 95° East 539 620 35,000  Level FlightAware ADS-B (LKVR)
Fri 11:32:06 AM 51.6115 -3.0387 95° East 539 620 35,000  Level FlightAware ADS-B (EGHH / BOH)
Fri 11:32:11 AM 51.6102 -3.0180 96° East 540 621 35,000  Level FlightAware ADS-B
Fri 11:32:12 AM 51.6099 -3.0136 96° East 540 621 35,000  Level FlightAware ADS-B
Fri 11:32:22 AM 51.6074 -2.9761 95° East 539 620 35,000  Level FlightAware ADS-B (KSCH)
Fri 11:32:29 AM 51.6054 -2.9457 95° East 539 620 35,000  Level FlightAware ADS-B
Fri 11:32:42 AM 51.6019 -2.8928 96° East 540 621 35,000  Level FlightAware ADS-B
Fri 11:32:46 AM 51.6012 -2.8834 96° East 540 621 35,000  Level FlightAware ADS-B (EGCW)
Fri 11:33:03 AM 51.5962 -2.8089 96° East 540 621 35,000  Level FlightAware ADS-B (EGHS)
Fri 11:33:14 AM 51.5931 -2.7648 96° East 540 621 35,000  Level FlightAware ADS-B
Fri 11:33:34 AM 51.5876 -2.6873 160° South 650 748 35,000  Level FlightAware ADS-B (EGGP / LPL)
Fri 11:33:37 AM 51.5868 -2.6749 96° East 541 623 35,000  Level FlightAware ADS-B (EGCW)
Fri 11:33:45 AM 51.5846 -2.6431 96° East 541 623 35,000  Level FlightAware ADS-B
Fri 11:33:57 AM 51.5815 -2.5989 96° East 542 624 35,000  Level FlightAware ADS-B (EGCW)
Fri 11:34:13 AM 51.5768 -2.5318 97° East 544 626 35,000  Level FlightAware ADS-B (EGCW)
Fri 11:34:18 AM 51.5753 -2.5099 97° East 544 626 35,000  Level FlightAware ADS-B
Fri 11:34:50 AM 51.5663 -2.3841 96° East 545 627 35,000  Level FlightAware ADS-B
Fri 11:35:20 AM 51.5579 -2.2635 97° East 546 628 35,000  Level FlightAware ADS-B
Fri 11:35:28 AM 51.5631 -2.3379 97° East 546 628 35,000  Level FlightAware ADS-B (EGLF / FAB)
Fri 11:35:50 AM 51.5489 -2.1402 97° East 546 628 35,000 109 Level FlightAware ADS-B
Fri 11:36:23 AM 51.5392 -2.0078 97° East 544 626 35,100 176 Climbing FlightAware ADS-B
Fri 11:36:24 AM 51.5404 -2.0248 97° East 544 626 35,100  Level FlightAware ADS-B (EGHA)
Fri 11:36:55 AM 51.5295 -1.8817 97° East 543 625 35,100  Level FlightAware ADS-B
Fri 11:36:57 AM 51.5292 -1.8774 97° East 543 625 35,100  Level FlightAware ADS-B (EGDM)
Fri 11:37:26 AM 51.5201 -1.7577 97° East 544 626 35,100  Level FlightAware ADS-B
Fri 11:37:28 AM 51.5204 -1.7617 97° East 544 626 35,100 -188 Level FlightAware ADS-B (EGHA)
Fri 11:37:58 AM 51.5103 -1.6308 97° East 544 626 35,000 -98 Descending FlightAware ADS-B
Fri 11:38:29 AM 51.5007 -1.5075 97° East 544 626 35,000  Level FlightAware ADS-B
Fri 11:38:30 AM 51.5026 -1.5311 97° East 544 626 35,000  Level FlightAware ADS-B (EGLF / FAB)
Fri 11:39:01 AM 51.4903 -1.3777 97° East 543 625 35,000  Level FlightAware ADS-B
Fri 11:39:04 AM 51.4894 -1.3673 97° East 543 625 35,000  Level FlightAware ADS-B (EGHH / BOH)
Fri 11:39:32 AM 51.4803 -1.2538 97° East 542 624 35,000  Level FlightAware ADS-B
Fri 11:39:37 AM 51.4790 -1.2378 97° East 543 625 35,000  Level FlightAware ADS-B (EGHA)
Fri 11:40:04 AM 51.4700 -1.1274 98° East 543 625 35,000  Level FlightAware ADS-B
Fri 11:40:12 AM 51.4676 -1.0983 98° East 543 625 35,000  Level FlightAware ADS-B
Fri 11:40:27 AM 51.4627 -1.0388 97° East 541 623 35,000  Level FlightAware ADS-B (EGHH / BOH)
Fri 11:40:40 AM 51.4580 -0.9846 98° East 542 624 35,000  Level FlightAware ADS-B
Fri 11:40:44 AM 51.4569 -0.9718 97° East 541 623 35,000  Level FlightAware ADS-B (EGHI / SOU)
Fri 11:40:54 AM 51.4536 -0.9326 97° East 541 623 35,000  Level FlightAware ADS-B (EGHH / BOH)
Fri 11:41:11 AM 51.4479 -0.8640 98° East 541 623 35,000  Level FlightAware ADS-B
Fri 11:41:16 AM 51.4475 -0.8594 98° East 541 623 35,000  Level FlightAware ADS-B (KPGA)
Fri 11:41:22 AM 51.4440 -0.8187 97° East 539 620 35,000  Level FlightAware ADS-B
Fri 11:41:41 AM 51.4377 -0.7445 98° East 539 620 35,000  Level FlightAware ADS-B
Fri 11:41:52 AM 51.4357 -0.7220 98° East 539 620 35,000  Level FlightAware ADS-B (EGLF / FAB)
Fri 11:41:59 AM 51.4380 -0.7484 97° East 540 621 35,000  Level FlightAware ADS-B
Fri 11:42:12 AM 51.4272 -0.6234 98° East 539 620 35,000  Level FlightAware ADS-B
Fri 11:42:29 AM 51.4232 -0.5763 97° East 541 623 35,000  Level FlightAware ADS-B
Fri 11:42:43 AM 51.4163 -0.4973 98° East 539 620 35,000  Level FlightAware ADS-B
Fri 11:42:44 AM 51.4163 -0.4973 97° East 538 619 35,000  Level FlightAware ADS-B (LKVR)
Fri 11:42:54 AM 51.4126 -0.4566 97° East 537 618 35,000  Level FlightAware ADS-B (LKVR)
Fri 11:43:00 AM 51.4106 -0.4338 97° East 537 618 35,000  Level FlightAware ADS-B (EGSR)
Fri 11:43:14 AM 51.4055 -0.3766 98° East 538 619 35,000  Level FlightAware ADS-B
Fri 11:43:40 AM 51.3964 -0.2752 98° East 539 620 35,000  Level FlightAware ADS-B
Fri 11:43:46 AM 51.3941 -0.2508 98° East 539 620 35,000  Level FlightAware ADS-B
Fri 11:44:04 AM 51.3877 -0.1802 98° East 539 620 35,000  Level FlightAware ADS-B
Fri 11:44:18 AM 51.3828 -0.1262 98° East 539 620 35,000  Level FlightAware ADS-B
Fri 11:44:35 AM 51.3771 -0.0634 98° East 538 619 35,000  Level FlightAware ADS-B
Fri 11:44:49 AM 51.3717 -0.0044 98° East 538 619 35,000  Level FlightAware ADS-B
Fri 11:45:05 AM 51.3675 0.0401 98° East 538 619 35,000  Level FlightAware ADS-B (KPGA)
Fri 11:45:19 AM 51.3607 0.1131 98° East 539 620 35,000  Level FlightAware ADS-B
Fri 11:45:39 AM 51.3549 0.1748 99° East 539 620 35,000  Level FlightAware ADS-B
Fri 11:45:49 AM 51.3493 0.2332 99° East 539 620 35,000  Level FlightAware ADS-B
Fri 11:46:16 AM 51.3450 0.2778 99° East 539 620 35,000  Level FlightAware ADS-B (KPGA)
Fri 11:46:25 AM 51.3357 0.3740 99° East 540 621 35,000  Level FlightAware ADS-B
Fri 11:46:46 AM 51.3282 0.4530 99° East 540 621 35,000  Level FlightAware ADS-B (EGLC / LCY)
Fri 11:46:58 AM 51.3235 0.5022 99° East 540 621 35,000  Level FlightAware ADS-B
Fri 11:47:21 AM 51.3161 0.5795 99° East 540 621 35,000  Level FlightAware ADS-B (EGLF / FAB)
Fri 11:47:28 AM 51.3120 0.6221 99° East 540 621 35,000  Level FlightAware ADS-B
Fri 11:47:51 AM 51.3083 0.6606 99° East 541 623 35,000  Level FlightAware ADS-B (EGSR)
Fri 11:47:58 AM 51.3004 0.7402 99° East 541 623 35,000 171 Level FlightAware ADS-B
Fri 11:48:26 AM 51.2901 0.8452 99° East 540 621 35,100 188 Climbing FlightAware ADS-B (EGKK / LGW)
Fri 11:48:30 AM 51.2882 0.8638 99° East 540 621 35,100  Level FlightAware ADS-B
Fri 11:48:54 AM 51.2786 0.9575 100° East 539 620 35,100  Level FlightAware ADS-B
Fri 11:49:01 AM 51.2755 0.9847 100° East 538 619 35,100  Level FlightAware ADS-B
Fri 11:49:13 AM 51.2702 1.0270 101° East 536 617 35,100  Level FlightAware ADS-B (EGKK / LGW)
Fri 11:49:18 AM 51.2668 1.0516 102° East 537 618 35,100 -316 Level FlightAware ADS-B (EGLC / LCY)
Fri 11:49:32 AM 51.2591 1.1060 103° East 536 617 35,000 -158 Descending FlightAware ADS-B
Fri 11:49:56 AM 51.2466 1.1951 103° East 536 617 35,000  Level FlightAware ADS-B
Fri 11:50:28 AM 51.2319 1.2997 103° East 536 617 35,000  Level FlightAware ADS-B (EGLC / LCY)
Fri 11:50:48 AM 51.2184 1.3954 102° East 535 616 35,000  Level FlightAware ADS-B
Fri 11:50:56 AM 51.2141 1.4251 103° East 537 618 35,000  Level FlightAware ADS-B (EGLC / LCY)
Fri 11:51:06 AM 51.2085 1.4644 102° East 535 616 35,000  Level FlightAware ADS-B (EGKK / LGW)
Fri 11:51:37 AM 51.1916 1.5839 103° East 536 617 35,000  Level FlightAware ADS-B (EGLC / LCY)
Fri 11:51:52 AM 51.1830 1.6428 102° East 534 615 35,000  Level FlightAware ADS-B (KSCH)
Fri 11:51:53 AM 51.1820 1.6485 104° East 535 616 35,000  Level FlightAware ADS-B
Fri 11:51:56 AM 51.1813 1.6526 106° East 533 613 35,000  Level FlightAware ADS-B (EGKK / LGW)
Fri 11:52:07 AM 51.1713 1.6986 111° Southeast 528 608 35,000  Level FlightAware ADS-B
Fri 11:52:12 AM 51.1664 1.7178 111° Southeast 524 603 35,000  Level FlightAware ADS-B (KSCH)
Fri 11:52:40 AM 51.1408 1.8170 112° Southeast 527 606 35,000  Level FlightAware ADS-B
Fri 11:53:04 AM 51.1191 1.9015 113° Southeast 528 608 35,000  Level FlightAware ADS-B (EGLC / LCY)
Fri 11:53:11 AM 51.1125 1.9267 112° Southeast 528 608 35,000  Level FlightAware ADS-B
Fri 11:53:18 AM 51.1060 1.9516 113° Southeast 528 608 35,000  Level FlightAware ADS-B (EGLC / LCY)
Fri 11:53:25 AM 51.1031 1.9630 113° Southeast 527 606 35,000  Level FlightAware ADS-B (EGLF / FAB)
Fri 11:53:41 AM 51.0840 2.0363 113° Southeast 526 605 35,000  Level FlightAware ADS-B
Fri 11:53:55 AM 51.0721 2.0877 107° East 531 611 35,000  Level FlightAware ADS-B
Fri 11:54:08 AM 51.0639 2.1342 104° East 531 611 35,000  Level FlightAware ADS-B (KSCH)
Fri 11:54:35 AM 51.0460 2.2380 107° East 531 611 35,000  Level FlightAware ADS-B
Fri 11:54:42 AM 51.0480 2.2265 105° East 532 612 35,000  Level FlightAware ADS-B (EGLF / FAB)
Fri 11:54:49 AM 51.0381 2.2913 102° East 535 616 35,000  Level FlightAware ADS-B
Fri 11:54:54 AM 51.0365 2.3031 102° East 535 616 35,000  Level FlightAware ADS-B (EGKK / LGW)
Fri 11:55:30 AM 51.0193 2.4313 102° East 533 613 35,000  Level FlightAware ADS-B (EGLF / FAB)
Fri 11:55:55 AM 51.0040 2.5414 112° Southeast 523 602 35,000  Level FlightAware ADS-B
Fri 11:56:41 AM 50.9805 2.7144 102° East 534 615 35,000  Level FlightAware ADS-B (KSCH)
Fri 11:56:50 AM 50.9767 2.7431 102° East 534 615 35,000  Level FlightAware ADS-B
Fri 11:57:22 AM 50.9711 2.7851 102° East 533 613 35,000  Level FlightAware ADS-B (EGLC / LCY)
Fri 11:57:52 AM 50.9700 2.7933 102° East 532 612 35,000  Level FlightAware ADS-B (EGLF / FAB)
Fri 11:58:46 AM 50.9149 3.1927 102° East 530 610 35,000  Level FlightAware UK
Fri 11:59:13 AM 50.9228 3.1362 102° East 530 610 35,000 -462 Level FlightAware ADS-B (KPGA)
Fri 11:59:51 AM 50.9085 3.2384 102° East 529 609 34,500 -723 Descending FlightAware ADS-B (EGLF / FAB)
Fri 12:00:36 PM 50.8683 3.5280 103° East 534 615 34,000 -349 Descending FlightAware ADS-B (KPGA)
Fri 12:01:17 PM 50.8391 3.7306 102° East 536 617 34,000  Level FlightAware ADS-B
Fri 12:01:39 PM 50.8213 3.8351 106° East 529 609 34,000 -130 Level FlightAware ADS-B
Fri 12:02:03 PM 50.8053 3.9183 106° East 529 609 33,900 -1,111 Descending FlightAware ADS-B
Fri 12:02:33 PM 50.7882 4.0067 108° East 532 612 33,000 -1,474 Descending FlightAware ADS-B
Fri 12:03:00 PM 50.7656 4.1206 106° East 529 609 32,500 -1,612 Descending FlightAware ADS-B
Fri 12:03:40 PM 50.7330 4.2923 106° East 512 589 31,200 -1,826 Descending FlightAware UK
Fri 12:03:46 PM 50.7464 4.2193 106° East 509 586 31,100 -1,729 Descending FlightAware ADS-B (LRBS / BBU)
Fri 12:04:39 PM 50.7014 4.4772 99° East 511 588 29,500 -1,465 Descending FlightAware ADS-B
Fri 12:05:12 PM 50.6895 4.6025 98° East 508 585 29,000 -1,091 Descending FlightAware ADS-B
Fri 12:05:23 PM 50.6866 4.6362 97° East 503 579 28,700 -1,765 Descending FlightAware ADS-B
Fri 12:05:29 PM 50.6840 4.6650 97° East 503 579 28,500 -1,833 Descending FlightAware ADS-B
Fri 12:05:59 PM 50.6728 4.7902 98° East 500 575 27,600 -1,700 Descending FlightAware ADS-B
Fri 12:06:29 PM 50.6668 4.8601 99° East 495 570 26,800 -1,636 Descending FlightAware ADS-B
Fri 12:07:05 PM 50.6470 5.0123 102° East 488 562 25,800 -1,579 Descending FlightAware ADS-B (LRBS / BBU)
Fri 12:07:45 PM 50.6404 5.1319 93° East 485 558 24,800 -2,125 Descending FlightAware ADS-B (EDKL)
Fri 12:07:53 PM 50.6386 5.1851 94° East 481 554 24,100 -3,375 Descending FlightAware ADS-B
Fri 12:08:01 PM 50.6352 5.2245 102° East 472 543 23,900 -1,105 Descending FlightAware ADS-B (LRBS / BBU)
Fri 12:08:31 PM 50.6229 5.3207 101° East 469 540 23,400 -1,355 Descending FlightAware ADS-B
Fri 12:09:03 PM 50.6179 5.3592 102° East 468 539 22,500 -1,556 Descending FlightAware ADS-B
Fri 12:09:52 PM 50.5891 5.5722 96° East 500 575 21,300 -1,258 Descending FlightAware ADS-B (EDKL)
Fri 12:10:05 PM 50.5854 5.6252 96° East 500 575 21,200 -1,333 Descending FlightAware ADS-B
Fri 12:10:28 PM 50.5850 5.7100 88° East 510 587 20,500 -2,368 Descending FlightAware ADS-B
Fri 12:10:43 PM 50.5854 5.7272 88° East 509 586 19,700 -1,579 Descending FlightAware ADS-B
Fri 12:11:25 PM 50.5892 5.9341 89° East 494 568 19,000 -1,315 Descending FlightAware ADS-B (EDKL)
Fri 12:11:56 PM 50.5908 6.0318 88° East 486 559 18,100 -1,385 Descending FlightAware ADS-B (EDKL)
Fri 12:12:04 PM 50.5912 6.0512 88° East 485 558 18,100 -1,525 Level FlightAware ADS-B
Fri 12:12:55 PM 50.5919 6.0924 88° East 476 548 16,600 -1,714 Descending FlightAware ADS-B (EDKL)
Fri 12:13:35 PM 50.5966 6.3645 89° East 466 536 15,500 -1,582 Descending FlightAware ADS-B (EDKL)
Fri 12:14:26 PM 50.5985 6.5102 89° East 460 529 14,200 -1,800 Descending FlightAware ADS-B (EDKL)
Fri 12:15:15 PM 50.6007 6.6627 81° East 451 519 12,500 -1,975 Descending FlightAware ADS-B (EDKL)
Fri 12:15:45 PM 50.6146 6.8062 81° East 435 501 11,600 -2,164 Descending FlightAware ADS-B (EDKL)
Fri 12:16:16 PM 50.6237 6.9005 82° East 424 488 10,300 -2,000 Descending FlightAware ADS-B (EDKL)
Fri 12:16:36 PM 50.6290 6.9598 82° East 412 474 9,900 -1,050 Descending FlightAware ADS-B (EDKL)
Fri 12:16:56 PM 50.6333 7.0087 82° East 390 449 9,600 -1,200 Descending FlightAware ADS-B (EDKL)
Fri 12:17:11 PM 50.6371 7.0501 82° East 372 428 9,200 -1,200 Descending FlightAware ADS-B (EDKL)
Fri 12:17:26 PM 50.6397 7.0994 87° East 352 405 9,000 -800 Descending FlightAware ADS-B (EDKL)
Fri 12:19:00 PM 50.8643 7.1424 North  Level Estimated
Fri 12:20:00 PM 50.8659 7.1427 90° East  Level Estimated
Fri 12:21:00 PM 50.8659 7.1427 90° East  Level Estimated
Fri 12:22:00 PM 50.8659 7.1427 90° East  Level Estimated
Fri 12:23:00 PM 50.8659 7.1427 90° East  Level Estimated
Fri 12:24:00 PM 50.8659 7.1427 90° East  Level Estimated
Fri 12:25:00 PM 50.8659 7.1427 90° East  Level Estimated
Fri 12:26:00 PM 50.8659 7.1427 90° East  Level Estimated
Fri 12:27:00 PM 50.8659 7.1427 90° East  Level Estimated
Fri 12:28:00 PM 50.8659 7.1427 90° East  Level Estimated
Fri 12:29:00 PM 50.8659 7.1427 90° East  Level Estimated
Fri 12:30:00 PM 50.8659 7.1427 90° East  Level Estimated
Fri 12:31:00 PM 50.8659 7.1427 90° East  Level Estimated
Fri 12:32:00 PM 50.8659 7.1427 90° East  Level Estimated
Fri 12:33:00 PM 50.8659 7.1427 90° East  Level Estimated
Fri 12:34:00 PM 50.8659 7.1427 90° East  Level Estimated
Fri 12:35:00 PM 50.8659 7.1427 90° East  Level Estimated
Fri 12:36:00 PM 50.8659 7.1427 90° East  Level Estimated
Fri 12:37:00 PM 50.8659 7.1427 90° East  Level Estimated
Fri 12:38:00 PM 50.8659 7.1427 90° East  Level Estimated
Fri 12:39:00 PM 50.8659 7.1427 90° East  Level Estimated
Fri 12:40:00 PM 50.8659 7.1427 90° East  Level Estimated
Fri 12:41:00 PM 50.8659 7.1427 90° East  Level Estimated
Fri 12:42:00 PM 50.8659 7.1427 90° East  Level Estimated
Fri 12:43:00 PM 50.8659 7.1427 90° East  Level Estimated
Fri 12:44:00 PM 50.8659 7.1427 90° East  Level Estimated
Fri 12:45:00 PM 50.8659 7.1427 90° East  Level Estimated
Fri 12:46:00 PM 50.8659 7.1427 90° East  Level Estimated

Login

Don't have an account? Register now (free) for customized features, flight alerts, and more!